Time;durP1;ratioP1;P1;durP2;ratioP2;P2;SDS_P1;SDS_P2;PMS_P1;PMS_P2;Temp;Humidity;BMP_temperature;BMP_pressure;BME280_temperature;BME280_humidity;BME280_pressure;Samples;Min_cycle;Max_cycle;Signal;HPM_P1;HPM_P2
2022/06/10 00:00:34;;;;;;;9.10;1.98;;;12.40;99.90;;;;;;5071522;28;20095;-39
2022/06/10 00:03:00;;;;;;;8.20;2.35;;;12.40;99.90;;;;;;5070241;28;20110;-39
2022/06/10 00:05:29;;;;;;;6.93;2.45;;;12.40;99.90;;;;;;5070870;28;20044;-40
2022/06/10 00:07:56;;;;;;;6.95;2.28;;;12.30;99.90;;;;;;5055008;28;20531;-41
2022/06/10 00:10:25;;;;;;;10.77;2.50;;;12.30;99.90;;;;;;5071263;28;20119;-40
2022/06/10 00:12:51;;;;;;;9.93;2.78;;;12.30;99.90;;;;;;5060989;28;20081;-40
2022/06/10 00:15:17;;;;;;;7.97;2.40;;;12.30;99.90;;;;;;5080618;28;20037;-40
2022/06/10 00:17:43;;;;;;;7.22;2.25;;;12.30;99.90;;;;;;5054573;28;20041;-40
2022/06/10 00:20:11;;;;;;;4.93;2.03;;;12.20;99.90;;;;;;5070956;28;20074;-40
2022/06/10 00:22:37;;;;;;;9.75;2.53;;;12.20;99.90;;;;;;5070052;28;20036;-40
2022/06/10 00:25:03;;;;;;;9.77;2.33;;;12.20;99.90;;;;;;5070882;28;20047;-39
2022/06/10 00:27:29;;;;;;;9.02;2.70;;;12.20;99.90;;;;;;5052887;28;20499;-41
2022/06/10 00:29:55;;;;;;;7.50;2.30;;;12.20;99.90;;;;;;5069155;28;20056;-39
2022/06/10 00:32:20;;;;;;;12.65;2.72;;;12.20;99.90;;;;;;5069139;28;20045;-40
2022/06/10 00:34:46;;;;;;;8.23;2.38;;;12.20;99.90;;;;;;5070471;28;20432;-40
2022/06/10 00:37:11;;;;;;;10.85;2.47;;;12.20;99.90;;;;;;5075144;28;20388;-39
2022/06/10 00:39:37;;;;;;;7.97;2.42;;;12.10;99.90;;;;;;5089213;28;20040;-40
2022/06/10 00:42:06;;;;;;;8.95;2.45;;;12.10;99.90;;;;;;5077498;28;20039;-40
2022/06/10 00:44:48;;;;;;;11.38;2.33;;;12.10;99.90;;;;;;5069782;28;20392;-40
2022/06/10 00:47:19;;;;;;;;;;;12.10;99.90;;;;;;5054819;28;20048;-41
2022/06/10 00:50:01;;;;;;;10.45;2.38;;;12.10;99.90;;;;;;5068758;28;19924;-41
2022/06/10 00:52:31;;;;;;;7.90;2.42;;;12.10;99.90;;;;;;5082341;28;20040;-40
2022/06/10 00:54:58;;;;;;;9.57;2.58;;;12.00;99.90;;;;;;5090558;28;20401;-39
2022/06/10 00:57:31;;;;;;;8.38;2.55;;;12.00;99.90;;;;;;5060252;28;20055;-42
2022/06/10 01:00:18;;;;;;;10.85;2.78;;;12.00;99.90;;;;;;5069979;28;20091;-40
2022/06/10 01:02:44;;;;;;;9.23;2.75;;;12.00;99.90;;;;;;5069736;28;20503;-40
2022/06/10 01:05:13;;;;;;;13.13;2.63;;;12.00;99.90;;;;;;5069905;28;20267;-41
2022/06/10 01:07:44;;;;;;;12.57;2.80;;;11.90;99.90;;;;;;5053620;28;20036;-39
2022/06/10 01:10:14;;;;;;;9.30;2.17;;;11.90;99.90;;;;;;5070179;28;20283;-39
2022/06/10 01:13:10;;;;;;;10.43;2.63;;;11.90;99.90;;;;;;5069523;28;20637;-40
2022/06/10 01:15:59;;;;;;;8.27;2.50;;;11.80;99.90;;;;;;5068382;28;20060;-40
2022/06/10 01:18:46;;;;;;;7.53;2.42;;;11.90;99.90;;;;;;5041516;28;20048;-40
2022/06/10 01:21:11;;;;;;;11.20;2.80;;;11.80;99.90;;;;;;5057052;28;20123;-39
2022/06/10 01:23:55;;;;;;;7.45;2.70;;;11.80;99.90;;;;;;5069301;28;20388;-39
2022/06/10 01:29:45;;;;;;;10.13;2.65;;;11.80;99.90;;;;;;5068780;28;20071;-41
2022/06/10 01:32:38;;;;;;;7.20;2.60;;;11.80;99.90;;;;;;5068927;28;20559;-41
2022/06/10 01:35:20;;;;;;;12.25;2.47;;;11.70;99.90;;;;;;5071229;28;20056;-40
2022/06/10 01:37:57;;;;;;;9.93;2.67;;;11.70;99.90;;;;;;5063611;28;20055;-41
2022/06/10 01:40:45;;;;;;;8.25;2.58;;;11.70;99.90;;;;;;5088515;28;20483;-40
2022/06/10 01:43:22;;;;;;;9.05;2.67;;;11.70;99.90;;;;;;5021218;28;20049;-40
2022/06/10 01:46:13;;;;;;;8.68;2.47;;;11.70;99.90;;;;;;5069475;28;20155;-40
2022/06/10 01:49:15;;;;;;;8.32;2.13;;;11.70;99.90;;;;;;5062502;28;20419;-40
2022/06/10 01:52:05;;;;;;;12.18;2.80;;;11.70;99.90;;;;;;5069602;28;20119;-40
2022/06/10 01:54:57;;;;;;;9.15;2.50;;;11.60;99.90;;;;;;5067292;28;20102;-40
2022/06/10 01:57:31;;;;;;;6.05;2.53;;;11.60;99.90;;;;;;5052894;28;20056;-39
2022/06/10 02:00:31;;;;;;;9.40;2.83;;;11.60;99.90;;;;;;5069269;28;20052;-40
2022/06/10 02:03:15;;;;;;;9.38;3.03;;;11.60;99.90;;;;;;5036972;28;20037;-40
2022/06/10 02:05:48;;;;;;;12.02;3.40;;;11.60;99.90;;;;;;5065708;28;20051;-40
2022/06/10 02:08:22;;;;;;;10.30;3.00;;;11.50;99.90;;;;;;5066141;28;20052;-40
2022/06/10 02:11:01;;;;;;;10.00;2.88;;;11.50;99.90;;;;;;5069429;28;20094;-40
2022/06/10 02:13:32;;;;;;;10.77;2.92;;;11.50;99.90;;;;;;5067003;28;20060;-40
2022/06/10 02:16:00;;;;;;;12.05;3.30;;;11.50;99.90;;;;;;5069020;28;20246;-40
2022/06/10 02:18:32;;;;;;;8.15;3.22;;;11.50;99.90;;;;;;5052397;28;20048;-40
2022/06/10 02:21:06;;;;;;;12.25;3.47;;;11.50;99.90;;;;;;5069172;28;20041;-40
2022/06/10 02:23:36;;;;;;;8.77;3.20;;;11.50;99.90;;;;;;5068389;28;20606;-40
2022/06/10 02:26:05;;;;;;;10.25;3.53;;;11.40;99.90;;;;;;5067983;28;20045;-40
2022/06/10 02:28:44;;;;;;;9.80;3.08;;;11.40;99.90;;;;;;5052395;28;20112;-40
2022/06/10 02:31:17;;;;;;;11.57;3.33;;;11.40;99.90;;;;;;5062967;28;20418;-40
2022/06/10 02:33:43;;;;;;;13.13;3.63;;;11.40;99.90;;;;;;5072399;28;20419;-39
2022/06/10 02:36:31;;;;;;;13.50;3.22;;;11.30;99.90;;;;;;5078074;28;20415;-41
2022/06/10 02:39:12;;;;;;;8.93;3.35;;;11.30;99.90;;;;;;5059331;28;20052;-38
2022/06/10 02:42:03;;;;;;;11.00;3.63;;;11.30;99.90;;;;;;5072530;28;20052;-40
2022/06/10 02:45:00;;;;;;;8.50;3.37;;;11.30;99.90;;;;;;5072227;28;20044;-39
2022/06/10 02:47:36;;;;;;;10.13;3.03;;;11.30;99.90;;;;;;5045558;28;20136;-41
2022/06/10 02:50:03;;;;;;;9.52;3.42;;;11.30;99.90;;;;;;5091321;28;20592;-39
2022/06/10 02:52:33;;;;;;;9.93;3.30;;;11.30;99.90;;;;;;5092027;28;20044;-40
2022/06/10 02:54:59;;;;;;;5.03;2.40;;;11.30;99.90;;;;;;5092724;28;20063;-39
2022/06/10 03:03:07;;;;;;;11.10;2.97;;;11.30;99.90;;;;;;5071504;28;20419;-41
2022/06/10 03:05:50;;;;;;;10.32;3.40;;;11.30;99.90;;;;;;5064452;28;20120;-40
2022/06/10 03:08:23;;;;;;;12.38;3.50;;;11.30;99.90;;;;;;5056136;28;20105;-41
2022/06/10 03:11:04;;;;;;;13.52;3.65;;;11.30;99.90;;;;;;5072588;28;20052;-40
2022/06/10 03:13:58;;;;;;;10.95;3.60;;;11.30;99.90;;;;;;5070482;28;20048;-41
2022/06/10 03:16:49;;;;;;;9.02;3.50;;;11.30;99.90;;;;;;5060229;28;20495;-41
2022/06/10 03:19:37;;;;;;;16.88;4.13;;;11.20;99.90;;;;;;5070940;28;20048;-39
2022/06/10 03:22:28;;;;;;;9.73;3.40;;;11.20;99.90;;;;;;5086715;28;20046;-40
2022/06/10 03:24:57;;;;;;;9.98;3.78;;;11.20;99.90;;;;;;5090317;28;20059;-40
2022/06/10 03:27:35;;;;;;;13.70;3.63;;;11.20;99.90;;;;;;5057392;28;20044;-41
2022/06/10 03:30:11;;;;;;;11.52;3.55;;;11.20;99.90;;;;;;5072129;28;20040;-41
2022/06/10 03:32:49;;;;;;;11.73;4.15;;;11.20;99.90;;;;;;5061026;28;20088;-40
2022/06/10 03:35:47;;;;;;;8.40;3.22;;;11.20;99.90;;;;;;5075555;28;20048;-39
2022/06/10 03:38:14;;;;;;;11.20;4.10;;;11.20;99.90;;;;;;5062859;28;20499;-40
2022/06/10 03:40:41;;;;;;;11.15;3.75;;;11.20;99.90;;;;;;5070569;28;20056;-40
2022/06/10 03:43:11;;;;;;;14.80;3.90;;;11.20;99.90;;;;;;5070888;28;20078;-40
2022/06/10 03:45:44;;;;;;;5.18;3.08;;;11.20;99.90;;;;;;5070134;28;20087;-42
2022/06/10 03:48:16;;;;;;;14.20;4.22;;;11.20;99.90;;;;;;5055380;28;20110;-42
2022/06/10 03:50:43;;;;;;;14.23;4.90;;;11.20;99.90;;;;;;5071826;28;20044;-42
2022/06/10 03:53:18;;;;;;;11.40;4.72;;;11.20;99.90;;;;;;5071202;28;20139;-42
2022/06/10 03:55:43;;;;;;;13.48;4.35;;;11.20;99.90;;;;;;5071179;28;20492;-42
2022/06/10 03:58:10;;;;;;;9.88;4.75;;;11.20;99.90;;;;;;5054872;28;20049;-39
2022/06/10 04:00:35;;;;;;;13.23;5.97;;;11.30;99.90;;;;;;5071867;28;20442;-39
2022/06/10 04:03:01;;;;;;;20.33;10.40;;;11.30;99.90;;;;;;5070578;28;20052;-39
2022/06/10 04:05:27;;;;;;;20.92;8.02;;;11.30;99.90;;;;;;5079063;28;20040;-39
2022/06/10 04:07:52;;;;;;;14.35;7.38;;;11.30;99.90;;;;;;5054671;28;20044;-39
2022/06/10 04:10:22;;;;;;;15.55;7.43;;;11.30;99.90;;;;;;5072315;28;20428;-41
2022/06/10 04:12:48;;;;;;;14.80;6.72;;;11.30;99.90;;;;;;5068964;28;20131;-41
2022/06/10 04:15:14;;;;;;;14.93;5.97;;;11.40;99.90;;;;;;5061716;28;20135;-40
2022/06/10 04:17:43;;;;;;;15.95;7.22;;;11.40;99.90;;;;;;5049343;28;20381;-40
2022/06/10 04:20:14;;;;;;;18.23;6.22;;;11.50;99.90;;;;;;5062544;28;20537;-40
2022/06/10 04:22:40;;;;;;;16.75;6.10;;;11.50;99.90;;;;;;5079740;28;20090;-40
2022/06/10 04:25:06;;;;;;;15.82;5.00;;;11.60;99.90;;;;;;5067430;28;20048;-41
2022/06/10 04:27:32;;;;;;;18.20;7.55;;;11.60;99.90;;;;;;5052879;28;20048;-41
2022/06/10 04:29:58;;;;;;;16.48;4.70;;;11.60;99.90;;;;;;5068690;28;20048;-39
2022/06/10 04:32:24;;;;;;;8.85;4.03;;;11.70;99.90;;;;;;5076656;28;20052;-41
2022/06/10 04:34:50;;;;;;;10.20;4.40;;;11.70;99.90;;;;;;5076150;28;20045;-41
2022/06/10 04:37:15;;;;;;;12.55;3.97;;;11.80;99.90;;;;;;5075382;28;20076;-40
2022/06/10 04:39:41;;;;;;;14.13;4.22;;;11.80;99.90;;;;;;5090564;28;20086;-40
2022/06/10 04:42:07;;;;;;;12.20;3.58;;;11.90;99.90;;;;;;5075940;28;20048;-41
2022/06/10 04:44:33;;;;;;;14.43;5.32;;;12.00;99.90;;;;;;5070429;28;20573;-40
2022/06/10 04:46:58;;;;;;;13.75;5.85;;;12.10;99.90;;;;;;5053567;28;20048;-41
2022/06/10 04:49:24;;;;;;;12.13;4.80;;;12.20;99.90;;;;;;5069482;28;20114;-40
2022/06/10 04:51:50;;;;;;;14.23;4.95;;;12.20;99.90;;;;;;5069272;28;20048;-40
2022/06/10 04:54:15;;;;;;;17.63;5.07;;;12.30;99.90;;;;;;5067945;28;20059;-39
2022/06/10 04:56:41;;;;;;;17.88;5.95;;;12.40;99.90;;;;;;5056079;28;20051;-41
2022/06/10 04:59:07;;;;;;;16.92;5.88;;;12.40;99.90;;;;;;5055556;28;20556;-40
2022/06/10 05:01:32;;;;;;;12.43;5.25;;;12.60;99.90;;;;;;5077658;28;20048;-39
2022/06/10 05:03:58;;;;;;;13.13;4.63;;;12.60;99.90;;;;;;5069165;28;20507;-40
2022/06/10 05:06:25;;;;;;;12.95;4.40;;;12.70;99.90;;;;;;5047708;28;20056;-41
2022/06/10 05:08:51;;;;;;;10.65;3.80;;;12.70;99.90;;;;;;5058340;28;20051;-40
2022/06/10 05:11:17;;;;;;;15.77;4.07;;;12.80;99.90;;;;;;5070219;28;20049;-40
2022/06/10 05:13:42;;;;;;;12.32;3.88;;;12.90;99.90;;;;;;5069193;28;20048;-40
2022/06/10 05:16:10;;;;;;;13.88;3.75;;;12.90;99.90;;;;;;5061453;28;20401;-41
2022/06/10 05:18:35;;;;;;;11.10;4.20;;;13.00;99.90;;;;;;5051871;28;20049;-39
2022/06/10 05:21:02;;;;;;;16.98;4.43;;;13.00;99.90;;;;;;5069773;28;20045;-40
2022/06/10 05:23:28;;;;;;;16.73;4.28;;;13.10;99.90;;;;;;5067902;28;20431;-40
2022/06/10 05:25:53;;;;;;;15.05;4.80;;;13.10;99.90;;;;;;5055563;28;20789;-40
2022/06/10 05:28:20;;;;;;;17.85;5.47;;;13.20;99.90;;;;;;5050499;28;20182;-41
2022/06/10 05:30:46;;;;;;;15.55;6.97;;;13.20;99.90;;;;;;5071049;28;20048;-40
2022/06/10 05:33:13;;;;;;;13.95;4.63;;;13.30;99.90;;;;;;5069156;28;20075;-40
2022/06/10 05:35:39;;;;;;;12.55;4.05;;;13.30;99.90;;;;;;5066835;28;20060;-40
2022/06/10 05:38:06;;;;;;;13.90;5.32;;;13.40;99.90;;;;;;5054043;28;20087;-39
2022/06/10 05:40:33;;;;;;;13.57;3.83;;;13.40;99.90;;;;;;5089024;28;20036;-40
2022/06/10 05:42:59;;;;;;;18.52;5.70;;;13.50;99.90;;;;;;5067662;28;20041;-40
2022/06/10 05:45:25;;;;;;;21.15;8.30;;;13.50;99.90;;;;;;5068337;28;20071;-40
2022/06/10 05:47:58;;;;;;;17.40;4.38;;;13.60;99.90;;;;;;5052809;28;20051;-40
2022/06/10 05:50:36;;;;;;;15.73;5.95;;;13.60;99.90;;;;;;5069442;28;20052;-40
2022/06/10 05:53:06;;;;;;;19.55;5.80;;;13.70;99.90;;;;;;5068520;28;20558;-40
2022/06/10 05:55:33;;;;;;;14.48;4.72;;;13.70;99.90;;;;;;5069629;28;20040;-40
2022/06/10 05:57:59;;;;;;;15.20;4.97;;;13.80;99.90;;;;;;5052882;28;20110;-40
2022/06/10 06:00:27;;;;;;;14.75;4.80;;;13.80;99.90;;;;;;5069544;28;20045;-40
2022/06/10 06:02:53;;;;;;;17.33;6.03;;;13.90;99.90;;;;;;5071951;28;20056;-40
2022/06/10 06:05:21;;;;;;;14.10;4.43;;;14.00;99.90;;;;;;5071795;28;20048;-40
2022/06/10 06:07:47;;;;;;;19.20;6.95;;;14.00;99.90;;;;;;5052608;28;20700;-41
2022/06/10 06:10:17;;;;;;;14.50;4.57;;;14.10;99.90;;;;;;5069029;28;20617;-40
2022/06/10 06:12:44;;;;;;;13.25;4.43;;;14.20;99.90;;;;;;5068933;28;20032;-41
2022/06/10 06:15:10;;;;;;;21.08;6.60;;;14.30;99.90;;;;;;5067576;28;20400;-40
2022/06/10 06:17:36;;;;;;;19.35;6.70;;;14.40;99.90;;;;;;5052553;28;20040;-41
2022/06/10 06:20:03;;;;;;;23.13;7.03;;;14.40;99.90;;;;;;5059086;28;20048;-40
2022/06/10 06:22:29;;;;;;;26.88;8.10;;;14.50;99.90;;;;;;5068242;28;20556;-40
2022/06/10 06:24:55;;;;;;;13.57;4.40;;;14.60;99.90;;;;;;5067741;28;20044;-40
2022/06/10 06:27:21;;;;;;;19.42;8.00;;;14.60;99.90;;;;;;5051157;28;20041;-39
2022/06/10 06:29:47;;;;;;;17.95;6.80;;;14.60;99.90;;;;;;5069231;28;20075;-40
2022/06/10 06:32:12;;;;;;;16.15;6.03;;;14.60;99.90;;;;;;5067854;28;20511;-40
2022/06/10 06:34:39;;;;;;;24.75;8.80;;;14.60;99.90;;;;;;5068903;28;20396;-40
2022/06/10 06:37:05;;;;;;;20.77;7.35;;;14.70;99.90;;;;;;5068320;28;20521;-39
2022/06/10 06:39:31;;;;;;;16.77;5.75;;;14.70;99.90;;;;;;5068790;28;20060;-40
2022/06/10 06:41:57;;;;;;;18.88;4.78;;;14.70;99.90;;;;;;5067531;28;20072;-40
2022/06/10 06:44:23;;;;;;;15.35;5.10;;;14.70;99.90;;;;;;5068255;28;20095;-39
2022/06/10 06:46:49;;;;;;;11.07;5.03;;;14.70;99.90;;;;;;5051471;28;20052;-40
2022/06/10 06:49:25;;;;;;;15.60;4.88;;;14.70;99.90;;;;;;5067745;28;20040;-40
2022/06/10 06:51:51;;;;;;;16.95;5.15;;;14.80;99.90;;;;;;5068827;28;20102;-40
2022/06/10 06:54:17;;;;;;;13.38;5.15;;;14.90;99.90;;;;;;5067774;28;20048;-40
2022/06/10 06:56:43;;;;;;;12.45;5.13;;;14.90;99.90;;;;;;5054525;28;20045;-40
2022/06/10 06:59:09;;;;;;;17.70;5.47;;;15.00;99.90;;;;;;5065637;28;20399;-39
2022/06/10 07:01:35;;;;;;;17.45;5.57;;;15.10;99.90;;;;;;5068785;28;20057;-40
2022/06/10 07:04:04;;;;;;;16.70;5.55;;;15.10;99.90;;;;;;5058328;28;20040;-40
2022/06/10 07:06:30;;;;;;;16.58;5.65;;;15.20;99.90;;;;;;5054893;28;20040;-41
2022/06/10 07:08:55;;;;;;;14.38;5.38;;;15.20;99.90;;;;;;5064646;28;20110;-39
2022/06/10 07:11:21;;;;;;;14.00;5.35;;;15.20;99.90;;;;;;5068774;28;20044;-39
2022/06/10 07:13:47;;;;;;;12.68;4.97;;;15.30;99.90;;;;;;5066672;28;20040;-40
2022/06/10 07:16:12;;;;;;;14.70;5.22;;;15.30;99.90;;;;;;5061802;28;20048;-41
2022/06/10 07:18:38;;;;;;;14.52;4.82;;;15.40;99.90;;;;;;5063590;28;20455;-40
2022/06/10 07:21:04;;;;;;;14.98;5.18;;;15.40;99.90;;;;;;5078783;28;20405;-39
2022/06/10 07:23:30;;;;;;;13.00;4.80;;;15.50;99.90;;;;;;5090056;28;20082;-40
2022/06/10 07:25:55;;;;;;;17.00;5.63;;;15.50;99.90;;;;;;5087789;28;20611;-40
2022/06/10 07:28:22;;;;;;;12.13;5.13;;;15.50;99.90;;;;;;5055226;28;20474;-40
2022/06/10 07:30:48;;;;;;;13.52;5.32;;;15.50;99.90;;;;;;5071904;28;20502;-40
2022/06/10 07:33:15;;;;;;;15.52;4.85;;;15.60;99.90;;;;;;5071183;28;20056;-40
2022/06/10 07:35:41;;;;;;;10.93;4.50;;;15.60;99.90;;;;;;5078476;28;20499;-40
2022/06/10 07:38:08;;;;;;;14.25;6.35;;;15.60;99.90;;;;;;5062386;28;20045;-40
2022/06/10 07:43:25;;;;;;;15.63;6.70;;;15.80;99.90;;;;;;5071192;28;20146;-40
2022/06/10 07:45:51;;;;;;;15.57;7.25;;;15.80;99.90;;;;;;5071510;28;20502;-40
2022/06/10 07:48:17;;;;;;;15.25;7.00;;;15.90;99.90;;;;;;5055325;28;20095;-40
2022/06/10 07:50:44;;;;;;;17.38;8.68;;;15.90;99.90;;;;;;5071613;28;20491;-40
2022/06/10 07:53:11;;;;;;;11.85;5.95;;;16.00;99.90;;;;;;5070907;28;20513;-40
2022/06/10 07:55:37;;;;;;;12.25;6.88;;;16.00;99.90;;;;;;5071741;28;20048;-40
2022/06/10 07:58:03;;;;;;;15.00;5.72;;;16.10;99.90;;;;;;5054184;28;20064;-40
2022/06/10 08:00:29;;;;;;;13.52;5.63;;;16.20;99.90;;;;;;5059392;28;20049;-40
2022/06/10 08:02:57;;;;;;;10.20;4.90;;;16.20;99.90;;;;;;5069464;28;20048;-40
2022/06/10 08:05:23;;;;;;;11.93;5.30;;;16.30;99.90;;;;;;5071346;28;20052;-40
2022/06/10 08:07:50;;;;;;;14.70;7.35;;;16.30;99.90;;;;;;5054885;28;20048;-40
2022/06/10 08:10:27;;;;;;;10.35;4.60;;;16.30;99.90;;;;;;5069511;28;20051;-40
2022/06/10 08:12:53;;;;;;;11.95;6.53;;;16.30;99.90;;;;;;5069306;28;20044;-40
2022/06/10 08:15:20;;;;;;;12.07;6.15;;;16.40;99.90;;;;;;5071093;28;20083;-40
2022/06/10 08:17:47;;;;;;;9.43;4.88;;;16.40;99.90;;;;;;5054669;28;20056;-41
2022/06/10 08:23:17;;;;;;;8.82;4.70;;;16.50;99.90;;;;;;5061405;28;20639;-40
2022/06/10 08:25:43;;;;;;;13.02;4.55;;;16.60;99.90;;;;;;5071147;28;20081;-40
2022/06/10 08:28:10;;;;;;;10.65;5.55;;;16.60;99.90;;;;;;5042720;28;20141;-40
2022/06/10 08:30:36;;;;;;;14.38;4.45;;;16.60;99.90;;;;;;5070007;28;20075;-40
2022/06/10 08:33:05;;;;;;;12.50;4.57;;;16.60;99.90;;;;;;5070005;28;20495;-40
2022/06/10 08:35:32;;;;;;;10.13;4.97;;;16.60;99.90;;;;;;5077106;28;20044;-40
2022/06/10 08:37:59;;;;;;;9.40;4.20;;;16.60;99.90;;;;;;5064123;28;20044;-41
2022/06/10 08:40:46;;;;;;;10.32;4.88;;;16.60;99.90;;;;;;5057508;28;20041;-40
2022/06/10 08:43:39;;;;;;;14.07;6.10;;;16.60;99.90;;;;;;5066442;28;20136;-40
2022/06/10 08:46:28;;;;;;;14.80;6.20;;;16.60;99.90;;;;;;5070893;28;20084;-40
2022/06/10 08:49:22;;;;;;;17.85;5.60;;;16.60;99.90;;;;;;5066995;28;20052;-41
2022/06/10 08:52:09;;;;;;;12.93;5.30;;;16.70;99.90;;;;;;5070435;28;20052;-40
2022/06/10 08:55:02;;;;;;;13.40;5.97;;;16.80;99.90;;;;;;5069693;28;20387;-40
2022/06/10 08:57:39;;;;;;;11.65;5.25;;;16.90;99.90;;;;;;5054598;28;20051;-42
2022/06/10 09:00:12;;;;;;;13.88;5.50;;;17.00;99.90;;;;;;5091110;28;20040;-40
2022/06/10 09:02:46;;;;;;;9.50;4.85;;;17.00;99.90;;;;;;5089729;28;20063;-40
2022/06/10 09:05:11;;;;;;;9.80;4.85;;;17.00;99.90;;;;;;5074560;28;20127;-40
2022/06/10 09:07:46;;;;;;;13.30;5.20;;;17.00;99.90;;;;;;5053460;28;20479;-41
2022/06/10 09:10:38;;;;;;;16.25;5.78;;;17.00;99.90;;;;;;5070426;28;20135;-39
2022/06/10 09:13:10;;;;;;;20.02;7.40;;;17.10;99.90;;;;;;5069435;28;20564;-40
2022/06/10 09:15:44;;;;;;;15.18;7.03;;;17.10;99.90;;;;;;5070108;28;20057;-39
2022/06/10 09:18:27;;;;;;;13.40;6.32;;;17.10;99.90;;;;;;5053342;28;20049;-40
2022/06/10 09:21:29;;;;;;;15.45;6.13;;;17.10;99.90;;;;;;5070197;28;20041;-40
2022/06/10 09:24:00;;;;;;;14.43;6.75;;;17.10;99.90;;;;;;5069128;28;20071;-39
2022/06/10 09:26:35;;;;;;;18.27;6.80;;;17.10;99.90;;;;;;5055658;28;20511;-40
2022/06/10 09:29:01;;;;;;;14.35;6.15;;;17.20;99.90;;;;;;5067273;28;20523;-40
2022/06/10 09:31:40;;;;;;;13.60;5.97;;;17.10;99.90;;;;;;5051926;28;20044;-41
2022/06/10 09:34:27;;;;;;;15.80;6.88;;;17.20;99.90;;;;;;5056193;28;20040;-40
2022/06/10 09:37:11;;;;;;;18.27;7.07;;;17.20;99.90;;;;;;5065878;28;20091;-41
2022/06/10 09:43:19;;;;;;;14.20;6.50;;;17.30;99.90;;;;;;5068645;28;20044;-41
2022/06/10 09:46:07;;;;;;;11.98;5.60;;;17.40;99.90;;;;;;5069375;28;20527;-41
2022/06/10 09:48:50;;;;;;;13.95;6.07;;;17.30;99.90;;;;;;5055703;28;20067;-41
2022/06/10 09:51:48;;;;;;;14.00;7.10;;;17.40;99.90;;;;;;5069453;28;20125;-40
2022/06/10 09:54:32;;;;;;;12.13;6.47;;;17.50;99.90;;;;;;5062903;28;20080;-41
2022/06/10 09:57:34;;;;;;;12.05;5.93;;;17.60;99.90;;;;;;5062028;28;20130;-41
2022/06/10 10:00:05;;;;;;;11.65;5.20;;;17.60;99.90;;;;;;5049321;28;20109;-40
2022/06/10 10:03:08;;;;;;;12.68;5.30;;;17.70;99.90;;;;;;5069275;28;20052;-41
2022/06/10 10:06:17;;;;;;;17.90;6.43;;;17.80;99.90;;;;;;5069442;28;20049;-40
2022/06/10 10:08:57;;;;;;;15.38;6.50;;;17.90;99.90;;;;;;5065314;28;20110;-40
2022/06/10 10:11:42;;;;;;;12.00;5.22;;;17.80;99.90;;;;;;5069379;28;20052;-40
2022/06/10 10:14:30;;;;;;;18.40;7.35;;;17.80;99.90;;;;;;5070716;28;20415;-41
2022/06/10 10:17:29;;;;;;;18.88;6.47;;;17.80;99.90;;;;;;5046259;28;20540;-41
2022/06/10 10:20:33;;;;;;;13.38;5.60;;;17.90;99.90;;;;;;5039883;28;20055;-40
2022/06/10 10:23:20;;;;;;;16.20;5.45;;;17.80;99.90;;;;;;5066845;28;20067;-41
2022/06/10 10:25:46;;;;;;;14.25;6.35;;;17.70;99.90;;;;;;5069122;28;20048;-40
2022/06/10 10:28:26;;;;;;;18.23;7.30;;;17.70;99.90;;;;;;5052955;28;20070;-40
2022/06/10 10:31:10;;;;;;;14.48;6.40;;;17.80;99.90;;;;;;5061657;28;20442;-40
2022/06/10 10:33:36;;;;;;;17.00;7.07;;;17.90;99.90;;;;;;5080600;28;20048;-40
2022/06/10 10:36:10;;;;;;;17.27;7.35;;;18.00;99.90;;;;;;5078100;28;20498;-41
2022/06/10 10:38:40;;;;;;;18.73;7.50;;;18.00;99.90;;;;;;5060976;28;20105;-41
2022/06/10 10:41:21;;;;;;;16.80;7.15;;;18.00;99.90;;;;;;5069530;28;20125;-41
2022/06/10 10:43:50;;;;;;;20.40;7.25;;;18.10;99.90;;;;;;5055520;28;20052;-41
2022/06/10 10:46:39;;;;;;;17.67;6.95;;;18.10;99.90;;;;;;5058268;28;20048;-41
2022/06/10 10:49:17;;;;;;;16.65;6.85;;;18.10;99.90;;;;;;5066729;28;20128;-41
2022/06/10 10:51:47;;;;;;;21.02;8.70;;;18.10;99.90;;;;;;5072802;28;20083;-41
2022/06/10 10:54:20;;;;;;;12.40;6.43;;;18.10;99.90;;;;;;5072075;28;20155;-41
2022/06/10 10:56:49;;;;;;;14.57;6.78;;;18.10;99.90;;;;;;5056838;28;20067;-42
2022/06/10 10:59:43;;;;;;;12.25;6.35;;;18.20;99.90;;;;;;5071444;28;20423;-41
2022/06/10 11:02:31;;;;;;;14.15;5.88;;;18.10;99.90;;;;;;5069287;28;20065;-41
2022/06/10 11:05:36;;;;;;;15.55;6.22;;;18.20;99.90;;;;;;5072497;28;20123;-41
2022/06/10 11:08:17;;;;;;;14.02;5.97;;;18.10;99.90;;;;;;5055964;28;20235;-41
2022/06/10 11:11:00;;;;;;;14.70;6.28;;;18.10;99.90;;;;;;5072689;28;20112;-41
2022/06/10 11:13:34;;;;;;;10.13;5.63;;;18.20;99.90;;;;;;5071337;28;20121;-41
2022/06/10 11:16:29;;;;;;;14.15;6.80;;;18.20;99.90;;;;;;5064496;28;20119;-41
2022/06/10 11:19:19;;;;;;;13.23;5.50;;;18.20;99.90;;;;;;5068224;28;20052;-41
2022/06/10 11:21:55;;;;;;;12.60;5.60;;;18.20;99.90;;;;;;5072492;28;20045;-41
2022/06/10 11:24:27;;;;;;;13.70;5.85;;;18.30;99.90;;;;;;5057991;28;20491;-41
2022/06/10 11:26:58;;;;;;;10.38;4.70;;;18.40;99.90;;;;;;5056234;28;20048;-41
2022/06/10 11:29:24;;;;;;;10.37;4.50;;;18.40;99.90;;;;;;5071440;28;20458;-41
2022/06/10 11:31:59;;;;;;;9.60;4.63;;;18.60;99.90;;;;;;5058638;28;20291;-41
2022/06/10 11:34:40;;;;;;;8.88;3.75;;;18.60;99.90;;;;;;5071093;28;20056;-41
2022/06/10 11:37:40;;;;;;;;;;;18.70;99.90;;;;;;5070042;28;20044;-41
2022/06/10 11:40:20;;;;;;;8.65;4.93;;;18.70;99.90;;;;;;5027879;28;19925;-41
2022/06/10 11:43:03;;;;;;;9.15;4.10;;;18.80;99.90;;;;;;5070982;28;20105;-41
2022/06/10 11:45:41;;;;;;;10.25;4.35;;;18.90;99.90;;;;;;5045515;28;20381;-41
2022/06/10 11:48:21;;;;;;;12.52;6.10;;;18.90;99.90;;;;;;5052363;28;20132;-41
2022/06/10 11:50:57;;;;;;;7.68;5.13;;;18.90;99.90;;;;;;5071928;28;20048;-41
2022/06/10 11:53:37;;;;;;;7.70;5.32;;;18.90;99.90;;;;;;5070714;28;20037;-41
2022/06/10 12:01:50;;;;;;;11.32;6.00;;;18.70;99.90;;;;;;5070820;28;20040;-41
2022/06/10 12:04:36;;;;;;;11.52;6.22;;;18.80;99.90;;;;;;5070741;28;20055;-41
2022/06/10 12:07:07;;;;;;;12.00;5.28;;;18.80;99.90;;;;;;5055222;28;20499;-41
2022/06/10 12:09:45;;;;;;;14.63;6.82;;;18.90;99.90;;;;;;5070596;28;20129;-41
2022/06/10 12:12:18;;;;;;;9.77;5.15;;;18.90;99.90;;;;;;5070583;28;20143;-42
2022/06/10 12:14:54;;;;;;;15.57;6.10;;;18.90;99.90;;;;;;5058412;28;20044;-41
2022/06/10 12:17:31;;;;;;;12.80;5.85;;;19.00;99.90;;;;;;5041396;28;20059;-41
2022/06/10 12:20:06;;;;;;;12.27;5.43;;;19.00;99.90;;;;;;5071319;28;20113;-41
2022/06/10 12:22:34;;;;;;;9.18;4.72;;;19.00;99.90;;;;;;5070591;28;20044;-41
2022/06/10 12:25:00;;;;;;;10.55;5.53;;;19.00;99.90;;;;;;5071401;28;20041;-41
2022/06/10 12:27:44;;;;;;;10.80;5.03;;;19.00;99.90;;;;;;5054303;28;20055;-41
2022/06/10 12:30:23;;;;;;;9.88;5.20;;;19.00;99.90;;;;;;5071267;28;20052;-41
2022/06/10 12:33:21;;;;;;;11.65;5.68;;;19.00;99.90;;;;;;5070223;28;20063;-41
2022/06/10 12:35:47;;;;;;;9.35;5.22;;;19.10;99.90;;;;;;5078581;28;20055;-41
2022/06/10 12:38:21;;;;;;;12.73;5.38;;;19.20;99.90;;;;;;5062141;28;20067;-41
2022/06/10 12:40:56;;;;;;;13.70;7.35;;;19.40;99.90;;;;;;5070418;28;20048;-41
2022/06/10 12:43:23;;;;;;;16.13;6.75;;;19.50;99.90;;;;;;5065593;28;20049;-41
2022/06/10 12:46:03;;;;;;;12.23;6.32;;;19.60;99.90;;;;;;5061705;28;20474;-41
2022/06/10 12:48:32;;;;;;;10.07;5.90;;;19.70;99.90;;;;;;5054075;28;20048;-40
2022/06/10 12:51:13;;;;;;;11.10;5.50;;;19.80;99.90;;;;;;5070704;28;20115;-41
2022/06/10 12:54:02;;;;;;;9.25;5.55;;;19.80;99.90;;;;;;5069766;28;20400;-41
2022/06/10 12:56:35;;;;;;;9.85;4.53;;;19.80;99.90;;;;;;5057964;28;20498;-41
2022/06/10 12:59:04;;;;;;;9.10;4.22;;;19.80;99.90;;;;;;5065998;28;20139;-41
2022/06/10 13:01:30;;;;;;;6.20;3.28;;;19.80;99.90;;;;;;5070484;28;20041;-41
2022/06/10 13:04:18;;;;;;;5.93;2.80;;;19.90;99.90;;;;;;5069493;28;20086;-41
2022/06/10 13:06:44;;;;;;;6.00;1.90;;;19.90;99.90;;;;;;5054993;28;20449;-41
2022/06/10 13:09:10;;;;;;;6.60;2.55;;;20.00;99.90;;;;;;5068928;28;20052;-41
2022/06/10 13:11:55;;;;;;;3.70;1.40;;;20.10;99.90;;;;;;5068681;28;20051;-41
2022/06/10 13:14:29;;;;;;;5.68;1.63;;;20.20;99.90;;;;;;5067971;28;20132;-41
2022/06/10 13:16:58;;;;;;;4.22;1.60;;;20.30;99.90;;;;;;5054227;28;20058;-41
2022/06/10 13:19:54;;;;;;;5.00;1.70;;;20.40;99.90;;;;;;5061050;28;20050;-41
2022/06/10 13:22:20;;;;;;;4.35;1.40;;;20.50;99.90;;;;;;5072749;28;20403;-41
2022/06/10 13:24:52;;;;;;;4.43;1.42;;;20.60;99.90;;;;;;5062595;28;20059;-41
2022/06/10 13:27:25;;;;;;;4.90;1.77;;;20.70;99.90;;;;;;5053003;28;20044;-42
2022/06/10 13:29:54;;;;;;;7.65;1.80;;;20.70;99.90;;;;;;5067506;28;20044;-41
2022/06/10 13:32:20;;;;;;;7.38;1.73;;;20.60;99.90;;;;;;5068808;28;20055;-41
2022/06/10 13:35:15;;;;;;;4.75;1.80;;;20.60;99.90;;;;;;5069636;28;20048;-41
2022/06/10 13:37:41;;;;;;;6.03;1.45;;;20.60;99.90;;;;;;5065422;28;20040;-42